sensor_id;sensor_type;location;lat;lon;timestamp;pressure;altitude;pressure_sealevel;temperature;humidity
10881;BME280;5493;48.884;8.338;2024-03-22T00:00:19;100917.47;;;13.00;100.00
10881;BME280;5493;48.884;8.338;2024-03-22T00:02:44;100910.38;;;12.99;100.00
10881;BME280;5493;48.884;8.338;2024-03-22T00:05:11;100917.34;;;12.88;100.00
10881;BME280;5493;48.884;8.338;2024-03-22T00:07:36;100916.94;;;12.84;100.00
10881;BME280;5493;48.884;8.338;2024-03-22T00:10:04;100912.81;;;13.07;100.00
10881;BME280;5493;48.884;8.338;2024-03-22T00:12:30;100903.06;;;12.74;100.00
10881;BME280;5493;48.884;8.338;2024-03-22T00:14:58;100908.94;;;12.96;100.00
10881;BME280;5493;48.884;8.338;2024-03-22T00:17:23;100903.94;;;13.00;100.00
10881;BME280;5493;48.884;8.338;2024-03-22T00:19:50;100908.19;;;12.89;100.00
10881;BME280;5493;48.884;8.338;2024-03-22T00:22:16;100900.69;;;12.84;100.00
10881;BME280;5493;48.884;8.338;2024-03-22T00:24:42;100899.69;;;12.54;100.00
10881;BME280;5493;48.884;8.338;2024-03-22T00:27:08;100901.91;;;12.26;100.00
10881;BME280;5493;48.884;8.338;2024-03-22T00:29:36;100888.22;;;12.52;100.00
10881;BME280;5493;48.884;8.338;2024-03-22T00:32:04;100886.44;;;12.40;100.00
10881;BME280;5493;48.884;8.338;2024-03-22T00:34:32;100882.25;;;12.44;100.00
10881;BME280;5493;48.884;8.338;2024-03-22T00:36:58;100881.28;;;12.31;100.00
10881;BME280;5493;48.884;8.338;2024-03-22T00:39:24;100886.94;;;12.61;100.00
10881;BME280;5493;48.884;8.338;2024-03-22T00:41:50;100873.53;;;12.42;100.00
10881;BME280;5493;48.884;8.338;2024-03-22T00:44:17;100879.50;;;12.19;100.00
10881;BME280;5493;48.884;8.338;2024-03-22T00:46:42;100861.41;;;12.13;100.00
10881;BME280;5493;48.884;8.338;2024-03-22T00:49:10;100860.72;;;12.24;100.00
10881;BME280;5493;48.884;8.338;2024-03-22T00:51:36;100863.88;;;12.21;100.00
10881;BME280;5493;48.884;8.338;2024-03-22T00:54:02;100862.28;;;12.07;100.00
10881;BME280;5493;48.884;8.338;2024-03-22T00:56:29;100860.00;;;12.04;100.00
10881;BME280;5493;48.884;8.338;2024-03-22T00:58:55;100854.78;;;12.09;100.00
10881;BME280;5493;48.884;8.338;2024-03-22T01:01:21;100856.59;;;12.21;100.00
10881;BME280;5493;48.884;8.338;2024-03-22T01:03:47;100856.78;;;12.20;100.00
10881;BME280;5493;48.884;8.338;2024-03-22T01:06:14;100851.00;;;12.16;100.00
10881;BME280;5493;48.884;8.338;2024-03-22T01:08:41;100849.59;;;12.07;100.00
10881;BME280;5493;48.884;8.338;2024-03-22T01:11:06;100843.59;;;11.99;100.00
10881;BME280;5493;48.884;8.338;2024-03-22T01:13:33;100848.84;;;11.87;100.00
10881;BME280;5493;48.884;8.338;2024-03-22T01:15:58;100846.19;;;11.74;100.00
10881;BME280;5493;48.884;8.338;2024-03-22T01:18:25;100844.53;;;11.73;100.00
10881;BME280;5493;48.884;8.338;2024-03-22T01:20:50;100840.41;;;11.57;100.00
10881;BME280;5493;48.884;8.338;2024-03-22T01:23:18;100844.13;;;11.63;100.00
10881;BME280;5493;48.884;8.338;2024-03-22T01:25:44;100855.28;;;11.93;100.00
10881;BME280;5493;48.884;8.338;2024-03-22T01:28:11;100847.19;;;11.86;100.00
10881;BME280;5493;48.884;8.338;2024-03-22T01:30:36;100844.97;;;11.63;100.00
10881;BME280;5493;48.884;8.338;2024-03-22T01:33:03;100844.09;;;11.69;100.00
10881;BME280;5493;48.884;8.338;2024-03-22T01:35:29;100833.75;;;11.60;100.00
10881;BME280;5493;48.884;8.338;2024-03-22T01:37:57;100830.31;;;11.26;100.00
10881;BME280;5493;48.884;8.338;2024-03-22T01:40:23;100838.25;;;10.95;100.00
10881;BME280;5493;48.884;8.338;2024-03-22T01:42:53;100829.28;;;11.21;100.00
10881;BME280;5493;48.884;8.338;2024-03-22T01:45:18;100831.56;;;11.11;100.00
10881;BME280;5493;48.884;8.338;2024-03-22T01:47:45;100829.31;;;11.01;100.00
10881;BME280;5493;48.884;8.338;2024-03-22T01:50:11;100831.97;;;11.27;100.00
10881;BME280;5493;48.884;8.338;2024-03-22T01:52:38;100823.66;;;11.22;100.00
10881;BME280;5493;48.884;8.338;2024-03-22T01:55:05;100820.34;;;11.07;100.00
10881;BME280;5493;48.884;8.338;2024-03-22T01:57:34;100822.25;;;10.94;100.00
10881;BME280;5493;48.884;8.338;2024-03-22T01:59:59;100822.22;;;11.00;100.00
10881;BME280;5493;48.884;8.338;2024-03-22T02:02:26;100820.38;;;11.01;100.00
10881;BME280;5493;48.884;8.338;2024-03-22T02:04:51;100817.69;;;10.94;100.00
10881;BME280;5493;48.884;8.338;2024-03-22T02:07:18;100815.63;;;11.03;100.00
10881;BME280;5493;48.884;8.338;2024-03-22T02:09:44;100816.19;;;11.18;100.00
10881;BME280;5493;48.884;8.338;2024-03-22T02:12:11;100816.81;;;11.20;100.00
10881;BME280;5493;48.884;8.338;2024-03-22T02:14:38;100809.31;;;11.22;100.00
10881;BME280;5493;48.884;8.338;2024-03-22T02:17:04;100806.84;;;11.27;100.00
10881;BME280;5493;48.884;8.338;2024-03-22T02:19:30;100813.81;;;11.61;100.00
10881;BME280;5493;48.884;8.338;2024-03-22T02:21:56;100815.28;;;11.57;100.00
10881;BME280;5493;48.884;8.338;2024-03-22T02:24:23;100811.94;;;11.55;100.00
10881;BME280;5493;48.884;8.338;2024-03-22T02:26:50;100813.97;;;11.79;100.00
10881;BME280;5493;48.884;8.338;2024-03-22T02:29:15;100809.78;;;11.90;100.00
10881;BME280;5493;48.884;8.338;2024-03-22T02:31:42;100805.59;;;11.87;100.00
10881;BME280;5493;48.884;8.338;2024-03-22T02:34:07;100807.25;;;11.95;100.00
10881;BME280;5493;48.884;8.338;2024-03-22T02:36:34;100803.31;;;11.91;100.00
10881;BME280;5493;48.884;8.338;2024-03-22T02:38:59;100798.81;;;11.78;100.00
10881;BME280;5493;48.884;8.338;2024-03-22T02:41:27;100802.16;;;11.67;100.00
10881;BME280;5493;48.884;8.338;2024-03-22T02:43:53;100792.13;;;11.80;100.00
10881;BME280;5493;48.884;8.338;2024-03-22T02:46:19;100790.06;;;11.82;100.00
10881;BME280;5493;48.884;8.338;2024-03-22T02:48:45;100796.44;;;11.95;100.00
10881;BME280;5493;48.884;8.338;2024-03-22T02:51:11;100798.94;;;11.96;100.00
10881;BME280;5493;48.884;8.338;2024-03-22T02:53:37;100797.63;;;12.05;100.00
10881;BME280;5493;48.884;8.338;2024-03-22T02:56:04;100789.00;;;12.21;100.00
10881;BME280;5493;48.884;8.338;2024-03-22T02:58:31;100793.22;;;12.11;100.00
10881;BME280;5493;48.884;8.338;2024-03-22T03:00:57;100790.19;;;12.01;100.00
10881;BME280;5493;48.884;8.338;2024-03-22T03:03:23;100787.97;;;12.22;100.00
10881;BME280;5493;48.884;8.338;2024-03-22T03:05:49;100784.03;;;12.18;100.00
10881;BME280;5493;48.884;8.338;2024-03-22T03:08:15;100776.91;;;12.24;100.00
10881;BME280;5493;48.884;8.338;2024-03-22T03:10:41;100776.72;;;12.25;100.00
10881;BME280;5493;48.884;8.338;2024-03-22T03:13:07;100780.34;;;12.38;100.00
10881;BME280;5493;48.884;8.338;2024-03-22T03:15:35;100778.09;;;12.34;100.00
10881;BME280;5493;48.884;8.338;2024-03-22T03:18:00;100778.63;;;12.18;100.00
10881;BME280;5493;48.884;8.338;2024-03-22T03:20:27;100781.06;;;12.26;100.00
10881;BME280;5493;48.884;8.338;2024-03-22T03:22:52;100781.72;;;12.22;100.00
10881;BME280;5493;48.884;8.338;2024-03-22T03:25:19;100783.72;;;12.33;100.00
10881;BME280;5493;48.884;8.338;2024-03-22T03:27:46;100773.63;;;12.22;100.00
10881;BME280;5493;48.884;8.338;2024-03-22T03:30:12;100774.06;;;12.19;100.00
10881;BME280;5493;48.884;8.338;2024-03-22T03:32:39;100777.41;;;12.14;100.00
10881;BME280;5493;48.884;8.338;2024-03-22T03:35:06;100774.03;;;12.50;100.00
10881;BME280;5493;48.884;8.338;2024-03-22T03:37:31;100777.50;;;12.57;100.00
10881;BME280;5493;48.884;8.338;2024-03-22T03:39:58;100768.88;;;12.42;100.00
10881;BME280;5493;48.884;8.338;2024-03-22T03:42:24;100772.28;;;12.31;100.00
10881;BME280;5493;48.884;8.338;2024-03-22T03:44:50;100766.34;;;12.16;100.00
10881;BME280;5493;48.884;8.338;2024-03-22T03:47:16;100763.19;;;12.25;100.00
10881;BME280;5493;48.884;8.338;2024-03-22T03:49:44;100766.16;;;12.17;100.00
10881;BME280;5493;48.884;8.338;2024-03-22T03:52:10;100758.53;;;12.08;100.00
10881;BME280;5493;48.884;8.338;2024-03-22T03:54:37;100752.19;;;11.89;100.00
10881;BME280;5493;48.884;8.338;2024-03-22T03:57:02;100749.78;;;11.61;100.00
10881;BME280;5493;48.884;8.338;2024-03-22T03:59:29;100750.47;;;11.57;100.00
10881;BME280;5493;48.884;8.338;2024-03-22T04:01:54;100746.97;;;11.50;100.00
10881;BME280;5493;48.884;8.338;2024-03-22T04:04:21;100746.25;;;11.67;100.00
10881;BME280;5493;48.884;8.338;2024-03-22T04:06:48;100745.03;;;11.63;100.00
10881;BME280;5493;48.884;8.338;2024-03-22T04:09:15;100748.44;;;11.90;100.00
10881;BME280;5493;48.884;8.338;2024-03-22T04:11:40;100750.06;;;11.98;100.00
10881;BME280;5493;48.884;8.338;2024-03-22T04:14:07;100760.16;;;12.09;100.00
10881;BME280;5493;48.884;8.338;2024-03-22T04:16:32;100747.69;;;11.76;100.00
10881;BME280;5493;48.884;8.338;2024-03-22T04:18:59;100749.78;;;11.74;100.00
10881;BME280;5493;48.884;8.338;2024-03-22T04:21:24;100753.06;;;11.32;100.00
10881;BME280;5493;48.884;8.338;2024-03-22T04:23:52;100757.06;;;11.67;100.00
10881;BME280;5493;48.884;8.338;2024-03-22T04:26:18;100748.38;;;11.59;100.00
10881;BME280;5493;48.884;8.338;2024-03-22T04:28:44;100751.00;;;11.78;100.00
10881;BME280;5493;48.884;8.338;2024-03-22T04:31:10;100753.16;;;11.57;100.00
10881;BME280;5493;48.884;8.338;2024-03-22T04:33:37;100755.53;;;11.33;100.00
10881;BME280;5493;48.884;8.338;2024-03-22T04:36:04;100757.41;;;11.26;100.00
10881;BME280;5493;48.884;8.338;2024-03-22T04:38:31;100757.09;;;11.03;100.00
10881;BME280;5493;48.884;8.338;2024-03-22T04:40:59;100760.38;;;11.12;100.00
10881;BME280;5493;48.884;8.338;2024-03-22T04:43:27;100764.94;;;11.11;100.00
10881;BME280;5493;48.884;8.338;2024-03-22T04:45:54;100760.34;;;11.25;100.00
10881;BME280;5493;48.884;8.338;2024-03-22T04:48:22;100759.66;;;11.36;100.00
10881;BME280;5493;48.884;8.338;2024-03-22T04:50:48;100769.25;;;11.25;100.00
10881;BME280;5493;48.884;8.338;2024-03-22T04:53:15;100764.19;;;11.49;100.00
10881;BME280;5493;48.884;8.338;2024-03-22T04:55:42;100758.16;;;11.47;100.00
10881;BME280;5493;48.884;8.338;2024-03-22T04:58:12;100750.59;;;11.17;100.00
10881;BME280;5493;48.884;8.338;2024-03-22T05:00:38;100755.31;;;11.35;100.00
10881;BME280;5493;48.884;8.338;2024-03-22T05:03:04;100748.47;;;11.39;100.00
10881;BME280;5493;48.884;8.338;2024-03-22T05:05:30;100753.88;;;11.26;100.00
10881;BME280;5493;48.884;8.338;2024-03-22T05:07:57;100749.72;;;11.30;100.00
10881;BME280;5493;48.884;8.338;2024-03-22T05:10:22;100750.09;;;11.40;100.00
10881;BME280;5493;48.884;8.338;2024-03-22T05:12:49;100749.91;;;11.42;100.00
10881;BME280;5493;48.884;8.338;2024-03-22T05:15:15;100747.91;;;11.75;100.00
10881;BME280;5493;48.884;8.338;2024-03-22T05:17:42;100742.75;;;11.60;100.00
10881;BME280;5493;48.884;8.338;2024-03-22T05:20:09;100737.31;;;11.73;100.00
10881;BME280;5493;48.884;8.338;2024-03-22T05:22:36;100744.38;;;11.74;100.00
10881;BME280;5493;48.884;8.338;2024-03-22T05:25:03;100730.47;;;11.64;100.00
10881;BME280;5493;48.884;8.338;2024-03-22T05:27:30;100730.44;;;11.77;100.00
10881;BME280;5493;48.884;8.338;2024-03-22T05:29:57;100732.16;;;11.59;100.00
10881;BME280;5493;48.884;8.338;2024-03-22T05:32:24;100731.53;;;11.63;100.00
10881;BME280;5493;48.884;8.338;2024-03-22T05:34:51;100728.63;;;11.58;100.00
10881;BME280;5493;48.884;8.338;2024-03-22T05:37:17;100728.81;;;11.63;100.00
10881;BME280;5493;48.884;8.338;2024-03-22T05:39:43;100726.59;;;11.54;100.00
10881;BME280;5493;48.884;8.338;2024-03-22T05:42:09;100726.13;;;11.63;100.00
10881;BME280;5493;48.884;8.338;2024-03-22T05:44:36;100728.09;;;11.88;100.00
10881;BME280;5493;48.884;8.338;2024-03-22T05:47:02;100732.78;;;11.99;100.00
10881;BME280;5493;48.884;8.338;2024-03-22T05:49:29;100726.81;;;11.90;100.00
10881;BME280;5493;48.884;8.338;2024-03-22T05:51:55;100720.53;;;11.58;100.00
10881;BME280;5493;48.884;8.338;2024-03-22T05:54:22;100716.78;;;11.59;100.00
10881;BME280;5493;48.884;8.338;2024-03-22T05:56:47;100720.91;;;11.75;100.00
10881;BME280;5493;48.884;8.338;2024-03-22T05:59:14;100706.94;;;11.78;100.00
10881;BME280;5493;48.884;8.338;2024-03-22T06:01:39;100720.91;;;11.62;100.00
10881;BME280;5493;48.884;8.338;2024-03-22T06:04:06;100718.75;;;11.83;100.00
10881;BME280;5493;48.884;8.338;2024-03-22T06:06:34;100719.69;;;12.02;100.00
10881;BME280;5493;48.884;8.338;2024-03-22T06:09:01;100719.88;;;12.07;100.00
10881;BME280;5493;48.884;8.338;2024-03-22T06:11:29;100712.66;;;12.26;100.00
10881;BME280;5493;48.884;8.338;2024-03-22T06:13:55;100712.34;;;12.59;100.00
10881;BME280;5493;48.884;8.338;2024-03-22T06:16:21;100715.59;;;12.67;100.00
10881;BME280;5493;48.884;8.338;2024-03-22T06:18:47;100714.13;;;12.71;100.00
10881;BME280;5493;48.884;8.338;2024-03-22T06:21:13;100709.53;;;12.72;100.00
10881;BME280;5493;48.884;8.338;2024-03-22T06:23:41;100706.09;;;12.83;100.00
10881;BME280;5493;48.884;8.338;2024-03-22T06:26:07;100706.31;;;13.00;100.00
10881;BME280;5493;48.884;8.338;2024-03-22T06:28:33;100693.63;;;13.00;100.00
10881;BME280;5493;48.884;8.338;2024-03-22T06:30:59;100686.56;;;13.17;100.00
10881;BME280;5493;48.884;8.338;2024-03-22T06:33:25;100695.22;;;13.26;100.00
10881;BME280;5493;48.884;8.338;2024-03-22T06:35:51;100690.56;;;13.33;100.00
10881;BME280;5493;48.884;8.338;2024-03-22T06:38:18;100682.97;;;13.53;100.00
10881;BME280;5493;48.884;8.338;2024-03-22T06:40:45;100685.75;;;13.65;100.00
10881;BME280;5493;48.884;8.338;2024-03-22T06:43:12;100684.38;;;13.74;100.00
10881;BME280;5493;48.884;8.338;2024-03-22T06:45:37;100685.94;;;13.82;100.00
10881;BME280;5493;48.884;8.338;2024-03-22T06:48:04;100687.84;;;13.93;100.00
10881;BME280;5493;48.884;8.338;2024-03-22T06:50:30;100673.47;;;13.92;100.00
10881;BME280;5493;48.884;8.338;2024-03-22T06:52:57;100676.19;;;14.04;100.00
10881;BME280;5493;48.884;8.338;2024-03-22T06:55:23;100682.31;;;13.88;100.00
10881;BME280;5493;48.884;8.338;2024-03-22T06:57:51;100682.63;;;13.79;100.00
10881;BME280;5493;48.884;8.338;2024-03-22T07:00:17;100678.72;;;13.75;100.00
10881;BME280;5493;48.884;8.338;2024-03-22T07:02:44;100677.81;;;13.82;100.00
10881;BME280;5493;48.884;8.338;2024-03-22T07:05:10;100676.53;;;13.84;100.00
10881;BME280;5493;48.884;8.338;2024-03-22T07:07:38;100677.84;;;14.05;100.00
10881;BME280;5493;48.884;8.338;2024-03-22T07:10:04;100676.00;;;14.17;100.00
10881;BME280;5493;48.884;8.338;2024-03-22T07:12:31;100662.69;;;14.27;100.00
10881;BME280;5493;48.884;8.338;2024-03-22T07:14:59;100655.38;;;14.27;100.00
10881;BME280;5493;48.884;8.338;2024-03-22T07:17:26;100658.50;;;14.43;100.00
10881;BME280;5493;48.884;8.338;2024-03-22T07:19:51;100659.44;;;14.48;100.00
10881;BME280;5493;48.884;8.338;2024-03-22T07:22:18;100658.47;;;14.54;100.00
10881;BME280;5493;48.884;8.338;2024-03-22T07:24:44;100656.22;;;14.63;100.00
10881;BME280;5493;48.884;8.338;2024-03-22T07:27:10;100657.53;;;14.60;100.00
10881;BME280;5493;48.884;8.338;2024-03-22T07:29:36;100662.84;;;14.78;100.00
10881;BME280;5493;48.884;8.338;2024-03-22T07:32:04;100664.44;;;15.03;100.00
10881;BME280;5493;48.884;8.338;2024-03-22T07:34:31;100661.72;;;15.03;100.00
10881;BME280;5493;48.884;8.338;2024-03-22T07:36:57;100657.88;;;15.27;100.00
10881;BME280;5493;48.884;8.338;2024-03-22T07:39:23;100660.75;;;15.20;100.00
10881;BME280;5493;48.884;8.338;2024-03-22T07:41:50;100655.59;;;15.47;100.00
10881;BME280;5493;48.884;8.338;2024-03-22T07:44:15;100646.78;;;15.28;100.00
10881;BME280;5493;48.884;8.338;2024-03-22T07:46:43;100649.31;;;15.47;100.00
10881;BME280;5493;48.884;8.338;2024-03-22T07:49:11;100643.44;;;15.38;100.00
10881;BME280;5493;48.884;8.338;2024-03-22T07:51:37;100639.53;;;15.34;100.00
10881;BME280;5493;48.884;8.338;2024-03-22T07:54:03;100651.19;;;15.46;100.00
10881;BME280;5493;48.884;8.338;2024-03-22T07:56:29;100648.75;;;15.73;100.00
10881;BME280;5493;48.884;8.338;2024-03-22T07:58:55;100648.28;;;15.76;100.00
10881;BME280;5493;48.884;8.338;2024-03-22T08:01:22;100654.38;;;15.83;100.00
10881;BME280;5493;48.884;8.338;2024-03-22T08:03:47;100637.06;;;15.89;100.00
10881;BME280;5493;48.884;8.338;2024-03-22T08:06:15;100646.16;;;16.11;100.00
10881;BME280;5493;48.884;8.338;2024-03-22T08:08:41;100644.56;;;16.32;100.00
10881;BME280;5493;48.884;8.338;2024-03-22T08:11:07;100638.13;;;16.55;100.00
10881;BME280;5493;48.884;8.338;2024-03-22T08:13:33;100639.72;;;16.34;100.00
10881;BME280;5493;48.884;8.338;2024-03-22T08:15:59;100632.47;;;16.23;100.00
10881;BME280;5493;48.884;8.338;2024-03-22T08:18:25;100636.91;;;16.62;100.00
10881;BME280;5493;48.884;8.338;2024-03-22T08:20:51;100627.16;;;16.66;100.00
10881;BME280;5493;48.884;8.338;2024-03-22T08:23:18;100622.16;;;16.58;100.00
10881;BME280;5493;48.884;8.338;2024-03-22T08:25:47;100624.66;;;16.82;100.00
10881;BME280;5493;48.884;8.338;2024-03-22T08:28:13;100621.53;;;16.73;100.00
10881;BME280;5493;48.884;8.338;2024-03-22T08:30:40;100610.78;;;16.83;100.00
10881;BME280;5493;48.884;8.338;2024-03-22T08:33:06;100618.72;;;17.06;100.00
10881;BME280;5493;48.884;8.338;2024-03-22T08:35:33;100606.38;;;16.82;100.00
10881;BME280;5493;48.884;8.338;2024-03-22T08:37:58;100608.38;;;16.87;100.00
10881;BME280;5493;48.884;8.338;2024-03-22T08:40:27;100597.53;;;17.13;100.00
10881;BME280;5493;48.884;8.338;2024-03-22T08:42:52;100605.19;;;17.16;100.00
10881;BME280;5493;48.884;8.338;2024-03-22T08:45:19;100608.44;;;17.40;100.00
10881;BME280;5493;48.884;8.338;2024-03-22T08:47:44;100602.88;;;17.03;100.00
10881;BME280;5493;48.884;8.338;2024-03-22T08:50:11;100613.28;;;17.33;100.00
10881;BME280;5493;48.884;8.338;2024-03-22T08:52:38;100605.75;;;17.67;100.00
10881;BME280;5493;48.884;8.338;2024-03-22T08:55:04;100608.94;;;17.59;100.00
10881;BME280;5493;48.884;8.338;2024-03-22T08:57:33;100604.63;;;17.95;100.00
10881;BME280;5493;48.884;8.338;2024-03-22T08:59:59;100604.19;;;17.76;100.00
10881;BME280;5493;48.884;8.338;2024-03-22T09:02:25;100598.75;;;17.76;100.00
10881;BME280;5493;48.884;8.338;2024-03-22T09:04:52;100596.25;;;18.01;100.00
10881;BME280;5493;48.884;8.338;2024-03-22T09:07:19;100588.25;;;18.27;100.00
10881;BME280;5493;48.884;8.338;2024-03-22T09:09:44;100581.22;;;17.99;100.00
10881;BME280;5493;48.884;8.338;2024-03-22T09:12:11;100591.88;;;18.37;100.00
10881;BME280;5493;48.884;8.338;2024-03-22T09:14:38;100585.59;;;18.37;100.00
10881;BME280;5493;48.884;8.338;2024-03-22T09:17:05;100582.75;;;18.58;100.00
10881;BME280;5493;48.884;8.338;2024-03-22T09:19:30;100574.97;;;18.92;100.00
10881;BME280;5493;48.884;8.338;2024-03-22T09:21:57;100569.13;;;18.68;100.00
10881;BME280;5493;48.884;8.338;2024-03-22T09:24:23;100567.53;;;18.73;100.00
10881;BME280;5493;48.884;8.338;2024-03-22T09:26:49;100574.16;;;18.92;100.00
10881;BME280;5493;48.884;8.338;2024-03-22T09:29:15;100573.00;;;18.78;100.00
10881;BME280;5493;48.884;8.338;2024-03-22T09:31:44;100568.09;;;18.80;100.00
10881;BME280;5493;48.884;8.338;2024-03-22T09:34:11;100560.94;;;18.68;100.00
10881;BME280;5493;48.884;8.338;2024-03-22T09:36:38;100556.25;;;18.59;100.00
10881;BME280;5493;48.884;8.338;2024-03-22T09:39:04;100550.69;;;18.49;100.00
10881;BME280;5493;48.884;8.338;2024-03-22T09:41:32;100543.50;;;18.80;100.00
10881;BME280;5493;48.884;8.338;2024-03-22T09:43:58;100544.69;;;19.09;100.00
10881;BME280;5493;48.884;8.338;2024-03-22T09:46:25;100553.81;;;18.67;100.00
10881;BME280;5493;48.884;8.338;2024-03-22T09:48:53;100544.66;;;18.94;100.00
10881;BME280;5493;48.884;8.338;2024-03-22T09:51:21;100538.94;;;19.10;100.00
10881;BME280;5493;48.884;8.338;2024-03-22T09:53:48;100542.75;;;19.04;100.00
10881;BME280;5493;48.884;8.338;2024-03-22T09:56:15;100540.34;;;19.13;100.00
10881;BME280;5493;48.884;8.338;2024-03-22T09:58:44;100536.41;;;18.89;100.00
10881;BME280;5493;48.884;8.338;2024-03-22T10:01:11;100537.03;;;19.11;100.00
10881;BME280;5493;48.884;8.338;2024-03-22T10:03:37;100528.91;;;19.46;100.00
10881;BME280;5493;48.884;8.338;2024-03-22T10:06:06;100531.03;;;19.09;100.00
10881;BME280;5493;48.884;8.338;2024-03-22T10:08:31;100527.72;;;19.07;100.00
10881;BME280;5493;48.884;8.338;2024-03-22T10:11:01;100512.59;;;18.74;100.00
10881;BME280;5493;48.884;8.338;2024-03-22T10:13:28;100521.97;;;18.93;100.00
10881;BME280;5493;48.884;8.338;2024-03-22T10:15:56;100522.50;;;18.90;100.00
10881;BME280;5493;48.884;8.338;2024-03-22T10:18:22;100520.13;;;19.29;100.00
10881;BME280;5493;48.884;8.338;2024-03-22T10:20:59;100511.81;;;18.79;100.00
10881;BME280;5493;48.884;8.338;2024-03-22T10:23:26;100508.59;;;19.02;100.00
10881;BME280;5493;48.884;8.338;2024-03-22T10:25:53;100508.91;;;19.26;100.00
10881;BME280;5493;48.884;8.338;2024-03-22T10:28:19;100510.00;;;19.25;100.00
10881;BME280;5493;48.884;8.338;2024-03-22T10:30:47;100502.59;;;19.05;100.00
10881;BME280;5493;48.884;8.338;2024-03-22T10:33:15;100507.53;;;19.18;100.00
10881;BME280;5493;48.884;8.338;2024-03-22T10:35:43;100503.72;;;19.19;100.00
10881;BME280;5493;48.884;8.338;2024-03-22T10:38:09;100496.94;;;19.42;100.00
10881;BME280;5493;48.884;8.338;2024-03-22T10:40:40;100489.25;;;19.34;100.00
10881;BME280;5493;48.884;8.338;2024-03-22T10:43:09;100486.28;;;19.60;100.00
10881;BME280;5493;48.884;8.338;2024-03-22T10:45:36;100477.75;;;19.22;100.00
10881;BME280;5493;48.884;8.338;2024-03-22T10:48:09;100473.69;;;19.49;100.00
10881;BME280;5493;48.884;8.338;2024-03-22T10:50:39;100465.72;;;19.33;100.00
10881;BME280;5493;48.884;8.338;2024-03-22T10:53:07;100467.94;;;19.61;97.57
10881;BME280;5493;48.884;8.338;2024-03-22T10:55:37;100449.63;;;19.46;97.84
10881;BME280;5493;48.884;8.338;2024-03-22T10:58:05;100456.72;;;19.73;96.02
10881;BME280;5493;48.884;8.338;2024-03-22T11:00:33;100455.31;;;19.90;96.15
10881;BME280;5493;48.884;8.338;2024-03-22T11:03:01;100446.03;;;19.61;90.65
10881;BME280;5493;48.884;8.338;2024-03-22T11:05:28;100440.81;;;19.95;91.88
10881;BME280;5493;48.884;8.338;2024-03-22T11:08:00;100437.47;;;20.13;90.47
10881;BME280;5493;48.884;8.338;2024-03-22T11:10:29;100434.09;;;20.41;90.21
10881;BME280;5493;48.884;8.338;2024-03-22T11:12:55;100432.06;;;20.62;90.66
10881;BME280;5493;48.884;8.338;2024-03-22T11:15:24;100431.25;;;21.10;87.61
10881;BME280;5493;48.884;8.338;2024-03-22T11:17:49;100424.69;;;21.12;87.08
10881;BME280;5493;48.884;8.338;2024-03-22T11:20:16;100426.66;;;20.96;87.29
10881;BME280;5493;48.884;8.338;2024-03-22T11:22:42;100422.81;;;20.53;89.63
10881;BME280;5493;48.884;8.338;2024-03-22T11:25:09;100407.47;;;19.78;92.41
10881;BME280;5493;48.884;8.338;2024-03-22T11:27:34;100399.19;;;20.62;91.11
10881;BME280;5493;48.884;8.338;2024-03-22T11:30:01;100387.72;;;20.55;89.29
10881;BME280;5493;48.884;8.338;2024-03-22T11:32:29;100369.75;;;20.39;85.53
10881;BME280;5493;48.884;8.338;2024-03-22T11:34:56;100370.59;;;20.34;85.06
10881;BME280;5493;48.884;8.338;2024-03-22T11:37:22;100368.91;;;20.43;88.25
10881;BME280;5493;48.884;8.338;2024-03-22T11:39:48;100366.63;;;20.60;84.63
10881;BME280;5493;48.884;8.338;2024-03-22T11:42:15;100363.09;;;20.94;86.59
10881;BME280;5493;48.884;8.338;2024-03-22T11:44:43;100362.72;;;21.05;85.82
10881;BME280;5493;48.884;8.338;2024-03-22T11:47:08;100352.97;;;20.89;86.79
10881;BME280;5493;48.884;8.338;2024-03-22T11:49:36;100357.78;;;21.07;87.75
10881;BME280;5493;48.884;8.338;2024-03-22T11:52:02;100347.63;;;21.08;84.53
10881;BME280;5493;48.884;8.338;2024-03-22T11:54:28;100347.59;;;21.42;83.16
10881;BME280;5493;48.884;8.338;2024-03-22T11:56:55;100343.00;;;21.37;85.66
10881;BME280;5493;48.884;8.338;2024-03-22T11:59:22;100346.25;;;21.10;82.86
10881;BME280;5493;48.884;8.338;2024-03-22T12:01:47;100333.69;;;21.04;80.93
10881;BME280;5493;48.884;8.338;2024-03-22T12:04:14;100332.16;;;20.88;85.88
10881;BME280;5493;48.884;8.338;2024-03-22T12:06:44;100338.38;;;21.33;83.48
10881;BME280;5493;48.884;8.338;2024-03-22T12:09:11;100327.13;;;21.00;83.53
10881;BME280;5493;48.884;8.338;2024-03-22T12:11:38;100321.88;;;21.04;81.94
10881;BME280;5493;48.884;8.338;2024-03-22T12:14:04;100332.53;;;21.05;82.82
10881;BME280;5493;48.884;8.338;2024-03-22T12:16:30;100322.47;;;21.01;83.26
10881;BME280;5493;48.884;8.338;2024-03-22T12:18:57;100322.69;;;20.76;83.35
10881;BME280;5493;48.884;8.338;2024-03-22T12:21:22;100318.25;;;20.80;85.27
10881;BME280;5493;48.884;8.338;2024-03-22T12:23:51;100318.69;;;21.54;84.84
10881;BME280;5493;48.884;8.338;2024-03-22T12:26:16;100308.00;;;21.24;79.01
10881;BME280;5493;48.884;8.338;2024-03-22T12:28:43;100308.03;;;20.90;79.34
10881;BME280;5493;48.884;8.338;2024-03-22T12:31:09;100301.84;;;21.08;80.39
10881;BME280;5493;48.884;8.338;2024-03-22T12:33:36;100297.91;;;21.48;81.68
10881;BME280;5493;48.884;8.338;2024-03-22T12:36:02;100287.25;;;21.42;82.02
10881;BME280;5493;48.884;8.338;2024-03-22T12:38:29;100285.66;;;21.12;82.13
10881;BME280;5493;48.884;8.338;2024-03-22T12:40:57;100276.97;;;20.66;82.81
10881;BME280;5493;48.884;8.338;2024-03-22T12:43:23;100278.69;;;20.57;84.46
10881;BME280;5493;48.884;8.338;2024-03-22T12:45:49;100281.84;;;21.37;86.36
10881;BME280;5493;48.884;8.338;2024-03-22T12:48:15;100281.47;;;21.20;78.98